Baden Baden, Illinois
Current Conditions -  °F | °C
As of 11:58 AM on Tuesday 21 Oct 2014 (Local Time) from KBLV Reporting Station
Clear Clear  
Wind Chill: 65°   Ceiling: Unl
Heat Index: 65°   Visibility: 10mi
Dew Point: 47°   Wind: 6mph
Humidity: 52%   Direction: 10°N
Pressure: 30.13"   Gusts: NA
Location:  38.7728°N, 89.5031°W
Report Text: KBLV 211658Z AUTO 01005KT 10SM CLR 18/08 A3013 RMK AO2 SLP206 T01810081
Loading
Personal Weather Stations






























Interactive Weather Map
Tropical Storm Tracking
New forecast layout! Learn more

10-Day Weather Forecast

Advertisements
Track Severe Weather on mobile